Terminal Aerodrome Forecast
Issued by NWS

Current Version | Previous Version | Text Only | Print | Product List | Glossary On
Versions: 1 2 3 4 5 6 7 8 9 10 11 12 13 14 15 16 17 18 19 20 21 22 23 24 25 26 27
132
FTUS44 KLUB 261121
TAFCDS
TAF
KCDS 261121Z 2612/2712 01011KT 5SM SHRA BR BKN006 OVC025
      TEMPO 2612/2613 2SM TSRA BR BKN004CB OVC020
     FM262000 01011KT P6SM OVC010=

USA.gov is the U.S. government's official web portal to all federal, state and local government web resources and services.